• Join FlightAware (Why Join?)
  • Login
  • US Flag 
09:11AM EDT


 

Airport Tracker/Info


-or-


 

Live Flight TrackerFlight Track Log ✈ SLI420 ✈ 17-Jun-2013 ✈ MMMX / MEX - MMMD / MID

Flight Track Log - Related Links

Times and Time Zones

All times are in EDT time to prevent confusion due to time zone crossing. See the SLI420 flight status page for this flight to view local times or setup timezone preferences in your user account.

Time Position Orientation Groundspeed Altitude Reporting Facility
EDT Latitude Longitude Course Direction KTS MPH feet Rate Location/Type
09:45AM 19.7946 -97.0995 79° East  Level Estimated
09:46AM 19.8129 -96.9954 79° East  Level Estimated
09:47AM 19.8311 -96.8913 79° East  Level Estimated
09:48AM 19.8492 -96.7872 79° East  Level Estimated
09:49AM 19.8673 -96.6831 80° East  Level Estimated
09:50AM 19.8853 -96.5789 80° East  Level Estimated
09:51AM 19.9033 -96.4748 80° East  Level Estimated
09:52AM 19.9212 -96.3706 80° East  Level Estimated
09:53AM 19.9390 -96.2663 80° East  Level Estimated
09:54AM 19.9568 -96.1621 80° East  Level Estimated
09:55AM 19.9745 -96.0578 80° East  Level Estimated
09:56AM 19.9922 -95.9535 80° East  Level Estimated
09:57AM 20.0098 -95.8492 80° East  Level Estimated
09:58AM 20.0273 -95.7448 80° East  Level Estimated
09:59AM 20.0448 -95.6404 80° East  Level Estimated
10:00AM 20.0622 -95.5361 80° East  Level Estimated
10:01AM 20.0795 -95.4316 80° East  Level Estimated
10:02AM 20.0968 -95.3272 80° East  Level Estimated
10:03AM 20.1140 -95.2227 80° East  Level Estimated
10:04AM 20.1312 -95.1183 80° East  Level Estimated
10:05AM 20.1483 -95.0137 80° East  Level Estimated
10:06AM 20.1654 -94.9092 80° East  Level Estimated
10:07AM 20.1823 -94.8047 80° East  Level Estimated
10:08AM 20.1993 -94.7001 80° East  Level Estimated
10:09AM 20.2161 -94.5955 80° East  Level Estimated
10:10AM 20.2329 -94.4909 80° East  Level Estimated
10:11AM 20.2496 -94.3862 80° East  Level Estimated
10:12AM 20.2663 -94.2816 80° East  Level Estimated
10:13AM 20.2829 -94.1769 80° East  Level Estimated
10:14AM 20.2995 -94.0722 80° East  Level Estimated
10:15AM 20.3160 -93.9674 80° East  Level Estimated
10:16AM 20.3324 -93.8627 80° East  Level Estimated
10:17AM 20.3487 -93.7579 81° East  Level Estimated
10:18AM 20.3650 -93.6531 81° East  Level Estimated
10:19AM 20.3813 -93.5483 81° East  Level Estimated
10:20AM 20.3974 -93.4434 81° East  Level Estimated
10:21AM 20.4135 -93.3386 81° East  Level Estimated
10:22AM 20.4296 -93.2337 81° East  Level Estimated
10:23AM 20.4456 -93.1288 81° East  Level Estimated
10:24AM 20.4615 -93.0238 81° East  Level Estimated
10:25AM 20.4774 -92.9189 81° East  Level Estimated
10:26AM 20.4931 -92.8139 81° East  Level Estimated
10:27AM 20.5089 -92.7089 81° East  Level Estimated
10:28AM 20.5245 -92.6039 81° East  Level Estimated
10:29AM 20.5401 -92.4988 81° East  Level Estimated
10:30AM 20.5557 -92.3938 81° East  Level Estimated
10:31AM 20.5712 -92.2887 81° East  Level Estimated
10:32AM 20.5866 -92.1836 81° East  Level Estimated
10:33AM 20.6019 -92.0785 81° East  Level Estimated
10:34AM 20.6172 -91.9733 81° East  Level Estimated
10:35AM 20.6324 -91.8681 81° East  Level Estimated
10:36AM 20.6476 -91.7630 81° East  Level Estimated
10:37AM 20.6627 -91.6578 81° East  Level Estimated
10:38AM 20.6777 -91.5525 81° East  Level Estimated
10:39AM 20.6927 -91.4473 81° East  Level Estimated
10:40AM 20.7076 -91.3420 81° East  Level Estimated
10:41AM 20.7224 -91.2367 81° East  Level Estimated
10:42AM 20.7372 -91.1314 81° East  Level Estimated
10:43AM 20.7519 -91.0261 81° East  Level Estimated
10:44AM 20.7666 -90.9207 82° East  Level Estimated
10:45AM 20.7812 -90.8154 82° East  Level Estimated
10:46AM 20.7957 -90.7100 82° East  Level Estimated
10:47AM 20.8102 -90.6046 82° East  Level Estimated
10:48AM 20.8245 -90.4991 82° East  Level Estimated
10:49AM 20.8389 -90.3936 82° East  Level Estimated
10:50AM 20.8531 -90.2882 82° East  Level Estimated
10:51AM 20.8673 -90.1827 82° East  Level Estimated
10:52AM 20.8815 -90.0771 82° East  Level Estimated
10:53AM 20.8955 -89.9716 82° East  Level Estimated
10:54AM 20.9095 -89.8661 82° East  Level Estimated
10:55AM 20.9235 -89.7605 82° East  Level Estimated
10:56AM 20.9370 -89.6577 82° East  Level Estimated
10:57AM 20.9370 -89.6577 298° West  Level Estimated
10:58AM 20.9370 -89.6577 298° West  Level Estimated
10:59AM 20.9370 -89.6577 298° West  Level Estimated
11:00AM 20.9370 -89.6577 298° West  Level Estimated
11:01AM 20.9370 -89.6577 298° West  Level Estimated
11:02AM 20.9370 -89.6577 298° West  Level Estimated
11:03AM 20.9370 -89.6577 298° West  Level Estimated
11:04AM 20.9370 -89.6577 298° West  Level Estimated
11:05AM 20.9370 -89.6577 298° West  Level Estimated
11:06AM 20.9370 -89.6577 298° West  Level Estimated
11:07AM 20.9370 -89.6577 298° West  Level Estimated
11:08AM 20.9370 -89.6577 298° West  Level Estimated
11:09AM 20.9370 -89.6577 298° West  Level Estimated
11:10AM 20.9370 -89.6577 298° West  Level Estimated
11:11AM 20.9370 -89.6577 298° West  Level Estimated
11:12AM 20.9370 -89.6577 298° West  Level Estimated